Time;durP1;ratioP1;P1;durP2;ratioP2;P2;SDS_P1;SDS_P2;PMS_P1;PMS_P2;Temp;Humidity;BMP_temperature;BMP_pressure;BME280_temperature;BME280_humidity;BME280_pressure;Samples;Min_cycle;Max_cycle;Signal;HPM_P1;HPM_P2
2023/08/13 00:01:10;;;;;;;11.15;2.70;;;;;;;;;;4947885;28;99077;-80
2023/08/13 00:03:37;;;;;;;7.38;2.08;;;;;;;;;;4948114;28;99269;-80
2023/08/13 00:06:04;;;;;;;9.10;2.47;;;;;;;;;;4948097;28;99576;-80
2023/08/13 00:08:30;;;;;;;8.00;2.28;;;;;;;;;;4948294;28;99551;-80
2023/08/13 00:10:57;;;;;;;6.80;2.10;;;;;;;;;;4950740;28;98909;-80
2023/08/13 00:13:23;;;;;;;8.30;2.13;;;;;;;;;;4962688;28;100344;-80
2023/08/13 00:15:50;;;;;;;7.32;2.10;;;;;;;;;;4958801;28;98560;-80
2023/08/13 00:18:16;;;;;;;9.07;2.03;;;;;;;;;;4928894;28;99016;-81
2023/08/13 00:20:43;;;;;;;8.20;2.33;;;;;;;;;;4945869;28;98680;-80
2023/08/13 00:23:09;;;;;;;7.40;2.08;;;;;;;;;;4945758;28;99088;-80
2023/08/13 00:25:36;;;;;;;11.02;2.63;;;;;;;;;;4933075;28;98970;-80
2023/08/13 00:28:02;;;;;;;8.77;2.33;;;;;;;;;;4946550;28;100925;-80
2023/08/13 00:30:30;;;;;;;8.75;2.25;;;;;;;;;;4942957;28;99002;-80
2023/08/13 00:32:57;;;;;;;8.43;2.25;;;;;;;;;;4945395;28;98786;-80
2023/08/13 00:35:23;;;;;;;7.22;2.00;;;;;;;;;;4941131;28;98928;-80
2023/08/13 00:37:50;;;;;;;9.85;2.10;;;;;;;;;;4941665;28;99440;-79
2023/08/13 00:40:17;;;;;;;9.35;2.42;;;;;;;;;;4945096;28;101262;-80
2023/08/13 00:42:43;;;;;;;7.72;2.10;;;;;;;;;;4948029;28;98984;-79
2023/08/13 00:45:10;;;;;;;7.78;2.33;;;;;;;;;;4943000;28;98625;-80
2023/08/13 00:47:37;;;;;;;9.00;2.25;;;;;;;;;;4937867;28;99171;-80
2023/08/13 00:50:04;;;;;;;;;;;;;;;;;;4930750;28;99537;-80
2023/08/13 00:52:31;;;;;;;10.50;2.25;;;;;;;;;;4948657;28;117829;-80
2023/08/13 00:54:57;;;;;;;7.90;2.10;;;;;;;;;;4949191;28;99386;-80
2023/08/13 00:57:24;;;;;;;7.30;1.95;;;;;;;;;;4948446;28;98658;-81
2023/08/13 00:59:51;;;;;;;10.18;1.90;;;;;;;;;;4934712;28;99170;-81
2023/08/13 01:02:19;;;;;;;8.20;1.80;;;;;;;;;;4946690;28;98579;-80
2023/08/13 01:04:46;;;;;;;7.55;2.00;;;;;;;;;;4947873;28;101350;-80
2023/08/13 01:07:27;;;;;;;7.13;1.90;;;;;;;;;;4944285;28;99219;-79
2023/08/13 01:10:02;;;;;;;10.38;2.22;;;;;;;;;;4940285;28;97810;-79
2023/08/13 01:12:35;;;;;;;7.05;1.92;;;;;;;;;;4946379;28;100556;-79
2023/08/13 01:15:02;;;;;;;8.07;2.00;;;;;;;;;;4943064;28;100486;-79
2023/08/13 01:17:30;;;;;;;8.27;2.00;;;;;;;;;;4933704;28;99232;-79
2023/08/13 01:19:58;;;;;;;11.13;2.00;;;;;;;;;;4941759;28;99902;-81
2023/08/13 01:22:26;;;;;;;7.07;1.92;;;;;;;;;;4939408;28;98626;-81
2023/08/13 01:24:53;;;;;;;9.38;2.17;;;;;;;;;;4937288;28;99192;-81
2023/08/13 01:27:28;;;;;;;7.57;2.38;;;;;;;;;;4950954;28;99335;-81
2023/08/13 01:29:55;;;;;;;7.70;2.05;;;;;;;;;;4952503;28;98539;-80
2023/08/13 01:32:27;;;;;;;6.95;1.70;;;;;;;;;;4950500;28;101661;-80
2023/08/13 01:34:55;;;;;;;7.75;2.08;;;;;;;;;;4948278;28;98362;-79
2023/08/13 01:37:22;;;;;;;8.15;2.08;;;;;;;;;;4945498;28;98771;-80
2023/08/13 01:39:49;;;;;;;;;;;;;;;;;;4948676;28;101315;-80
2023/08/13 01:42:15;;;;;;;8.95;1.92;;;;;;;;;;4948282;28;99290;-80
2023/08/13 01:44:42;;;;;;;9.00;1.90;;;;;;;;;;4946689;28;100640;-80
2023/08/13 01:47:09;;;;;;;8.05;1.98;;;;;;;;;;4946799;28;99836;-80
2023/08/13 01:49:35;;;;;;;8.18;1.98;;;;;;;;;;4945345;28;98600;-80
2023/08/13 01:52:02;;;;;;;9.20;2.28;;;;;;;;;;4946815;28;98708;-80
2023/08/13 01:54:29;;;;;;;7.50;2.10;;;;;;;;;;4938459;28;101957;-79
2023/08/13 01:56:55;;;;;;;9.38;2.10;;;;;;;;;;4939760;28;98557;-79
2023/08/13 01:59:22;;;;;;;6.78;1.90;;;;;;;;;;4950087;28;99375;-79
2023/08/13 02:01:48;;;;;;;8.02;1.85;;;;;;;;;;4929305;28;98610;-80
2023/08/13 02:04:15;;;;;;;9.35;2.20;;;;;;;;;;4944102;28;100401;-81
2023/08/13 02:06:42;;;;;;;8.65;2.35;;;;;;;;;;4934844;28;102750;-88
2023/08/13 02:09:08;;;;;;;11.85;2.60;;;;;;;;;;4946988;28;98665;-88
2023/08/13 02:11:35;;;;;;;9.70;2.53;;;;;;;;;;4940575;28;99604;-86
2023/08/13 02:14:01;;;;;;;8.20;2.50;;;;;;;;;;4932777;28;101737;-86
2023/08/13 02:16:28;;;;;;;9.43;2.70;;;;;;;;;;4917796;28;98606;-86
2023/08/13 02:18:56;;;;;;;9.27;2.30;;;;;;;;;;4938281;28;98790;-86
2023/08/13 02:21:22;;;;;;;10.40;2.83;;;;;;;;;;4950170;28;99314;-86
2023/08/13 02:23:49;;;;;;;11.57;2.60;;;;;;;;;;4944163;28;98658;-86
2023/08/13 02:26:15;;;;;;;8.60;2.10;;;;;;;;;;4945122;28;99107;-85
2023/08/13 02:28:45;;;;;;;10.82;2.60;;;;;;;;;;4946415;28;98718;-86
2023/08/13 02:31:12;;;;;;;9.35;2.80;;;;;;;;;;4946885;28;99548;-85
2023/08/13 02:33:39;;;;;;;9.95;2.30;;;;;;;;;;4947357;28;100018;-86
2023/08/13 02:36:05;;;;;;;10.80;2.25;;;;;;;;;;4947319;28;98721;-85
2023/08/13 02:38:34;;;;;;;11.02;2.60;;;;;;;;;;4946394;28;101581;-86
2023/08/13 02:41:01;;;;;;;10.27;2.45;;;;;;;;;;4935945;28;100436;-86
2023/08/13 02:43:31;;;;;;;9.57;2.42;;;;;;;;;;4953079;28;98506;-84
2023/08/13 02:45:58;;;;;;;10.38;2.75;;;;;;;;;;4945749;28;101932;-85
2023/08/13 02:48:24;;;;;;;9.45;2.22;;;;;;;;;;4930105;28;97823;-86
2023/08/13 02:50:51;;;;;;;9.52;2.75;;;;;;;;;;4947391;28;99011;-85
2023/08/13 02:53:17;;;;;;;8.35;2.75;;;;;;;;;;4946458;28;99306;-85
2023/08/13 02:55:44;;;;;;;9.65;2.53;;;;;;;;;;4944834;28;99292;-86
2023/08/13 02:58:10;;;;;;;11.48;2.83;;;;;;;;;;4934232;28;100292;-87
2023/08/13 03:00:38;;;;;;;10.38;2.88;;;;;;;;;;4945896;28;101548;-87
2023/08/13 03:03:04;;;;;;;11.05;2.97;;;;;;;;;;4950276;28;98995;-86
2023/08/13 03:05:32;;;;;;;9.82;2.30;;;;;;;;;;4954712;28;99538;-85
2023/08/13 03:07:59;;;;;;;9.50;2.63;;;;;;;;;;4954254;28;98885;-87
2023/08/13 03:10:25;;;;;;;10.45;2.75;;;;;;;;;;4954481;28;99167;-87
2023/08/13 03:12:52;;;;;;;9.50;2.35;;;;;;;;;;4939308;28;100898;-86
2023/08/13 03:15:19;;;;;;;9.52;2.42;;;;;;;;;;4948726;28;98533;-86
2023/08/13 03:17:45;;;;;;;10.50;2.88;;;;;;;;;;4949315;28;99911;-86
2023/08/13 03:20:12;;;;;;;10.95;2.50;;;;;;;;;;4938434;28;99665;-85
2023/08/13 03:22:39;;;;;;;8.45;2.67;;;;;;;;;;4947037;28;98763;-85
2023/08/13 03:25:05;;;;;;;10.35;2.42;;;;;;;;;;4936192;28;100230;-85
2023/08/13 03:27:36;;;;;;;10.95;2.50;;;;;;;;;;4943574;28;101379;-85
2023/08/13 03:30:04;;;;;;;9.00;2.30;;;;;;;;;;4947082;28;102077;-84
2023/08/13 03:32:31;;;;;;;9.15;2.20;;;;;;;;;;4940537;28;99583;-85
2023/08/13 03:34:58;;;;;;;9.77;2.50;;;;;;;;;;4948947;28;98659;-87
2023/08/13 03:37:24;;;;;;;9.82;2.40;;;;;;;;;;4950521;28;101681;-86
2023/08/13 03:39:51;;;;;;;7.40;2.13;;;;;;;;;;4935715;28;99660;-86
2023/08/13 03:42:22;;;;;;;10.73;2.42;;;;;;;;;;4949334;28;98664;-86
2023/08/13 03:44:50;;;;;;;10.15;2.33;;;;;;;;;;4931906;28;100857;-85
2023/08/13 03:47:16;;;;;;;10.55;2.17;;;;;;;;;;4950419;28;99065;-86
2023/08/13 03:49:43;;;;;;;9.57;2.30;;;;;;;;;;4951348;28;98499;-86
2023/08/13 03:52:10;;;;;;;12.57;2.20;;;;;;;;;;4949783;28;99644;-86
2023/08/13 03:54:37;;;;;;;9.23;2.60;;;;;;;;;;4948499;28;98542;-87
2023/08/13 03:57:04;;;;;;;10.63;2.30;;;;;;;;;;4957818;28;98879;-86
2023/08/13 03:59:30;;;;;;;6.75;1.83;;;;;;;;;;4942388;28;99017;-86
2023/08/13 04:01:58;;;;;;;8.77;2.40;;;;;;;;;;4952831;28;98918;-86
2023/08/13 04:04:26;;;;;;;9.80;2.20;;;;;;;;;;4943317;28;98530;-86
2023/08/13 04:06:53;;;;;;;10.05;2.40;;;;;;;;;;4943647;28;99733;-86
2023/08/13 04:09:19;;;;;;;8.45;2.10;;;;;;;;;;4947155;28;99862;-86
2023/08/13 04:11:46;;;;;;;9.00;2.38;;;;;;;;;;4938716;28;101767;-86
2023/08/13 04:14:12;;;;;;;8.73;2.17;;;;;;;;;;4949906;28;98604;-86
2023/08/13 04:16:40;;;;;;;10.65;2.30;;;;;;;;;;4948193;28;101192;-87
2023/08/13 04:19:07;;;;;;;8.48;2.40;;;;;;;;;;4949457;28;99197;-86
2023/08/13 04:21:35;;;;;;;9.50;2.38;;;;;;;;;;4950045;28;98581;-86
2023/08/13 04:24:03;;;;;;;8.40;2.17;;;;;;;;;;4947301;28;101929;-88
2023/08/13 04:26:30;;;;;;;8.15;2.30;;;;;;;;;;4935999;28;100225;-87
2023/08/13 04:28:59;;;;;;;9.68;2.53;;;;;;;;;;4947598;28;98738;-85
2023/08/13 04:31:27;;;;;;;7.28;2.00;;;;;;;;;;4939833;28;100854;-85
2023/08/13 04:33:54;;;;;;;8.48;2.00;;;;;;;;;;4931687;28;99337;-86
2023/08/13 04:36:21;;;;;;;11.02;2.10;;;;;;;;;;4931665;28;102712;-86
2023/08/13 04:38:47;;;;;;;9.45;2.33;;;;;;;;;;4925309;28;100589;-86
2023/08/13 04:41:14;;;;;;;7.60;2.00;;;;;;;;;;4940212;28;98687;-86
2023/08/13 04:43:44;;;;;;;7.93;1.98;;;;;;;;;;4928886;28;101575;-87
2023/08/13 04:46:11;;;;;;;8.48;2.15;;;;;;;;;;4940037;28;99543;-86
2023/08/13 04:48:44;;;;;;;9.57;2.13;;;;;;;;;;4947635;28;98606;-86
2023/08/13 04:51:15;;;;;;;8.13;1.88;;;;;;;;;;4948067;28;101397;-86
2023/08/13 04:53:42;;;;;;;9.93;2.30;;;;;;;;;;4951072;28;101742;-87
2023/08/13 04:56:09;;;;;;;;;;;;;;;;;;4940693;28;101026;-85
2023/08/13 04:58:36;;;;;;;11.80;2.55;;;;;;;;;;4944710;28;109903;-87
2023/08/13 05:01:04;;;;;;;11.02;2.30;;;;;;;;;;4949152;28;98627;-87
2023/08/13 05:03:31;;;;;;;9.48;2.28;;;;;;;;;;4938173;28;101873;-88
2023/08/13 05:05:58;;;;;;;8.38;2.42;;;;;;;;;;4928529;28;99731;-87
2023/08/13 05:08:24;;;;;;;10.85;2.08;;;;;;;;;;4949594;28;98499;-87
2023/08/13 05:10:52;;;;;;;;;;;;;;;;;;4936276;28;100340;-87
2023/08/13 05:13:18;;;;;;;9.07;2.10;;;;;;;;;;4952558;28;101289;-85
2023/08/13 05:15:45;;;;;;;12.70;2.50;;;;;;;;;;4963325;28;97882;-88
2023/08/13 05:18:12;;;;;;;9.98;2.30;;;;;;;;;;4958210;28;100521;-88
2023/08/13 05:20:38;;;;;;;9.73;2.63;;;;;;;;;;4945988;28;98474;-87
2023/08/13 05:23:05;;;;;;;10.13;2.20;;;;;;;;;;4962895;28;100528;-87
2023/08/13 05:25:37;;;;;;;8.48;2.15;;;;;;;;;;4950699;28;100552;-88
2023/08/13 05:28:06;;;;;;;8.93;2.30;;;;;;;;;;4946918;28;98463;-86
2023/08/13 05:30:34;;;;;;;12.68;2.38;;;;;;;;;;4956304;28;101347;-87
2023/08/13 05:33:00;;;;;;;8.35;2.40;;;;;;;;;;4956525;28;98874;-88
2023/08/13 05:35:28;;;;;;;9.50;2.40;;;;;;;;;;4937757;28;98635;-85
2023/08/13 05:37:55;;;;;;;;;;;;;;;;;;4938683;28;101542;-86
2023/08/13 05:40:21;;;;;;;10.90;2.42;;;;;;;;;;4948907;28;97773;-87
2023/08/13 05:42:50;;;;;;;10.68;2.10;;;;;;;;;;4935873;28;101239;-87
2023/08/13 05:45:17;;;;;;;10.73;2.50;;;;;;;;;;4944164;28;99865;-85
2023/08/13 05:47:44;;;;;;;;;;;;;;;;;;4940137;28;99287;-87
2023/08/13 05:50:10;;;;;;;8.85;1.90;;;;;;;;;;4936853;28;101397;-87
2023/08/13 05:52:39;;;;;;;11.55;2.42;;;;;;;;;;4949527;28;99150;-88
2023/08/13 05:55:06;;;;;;;14.50;2.70;;;;;;;;;;4937669;28;98705;-87
2023/08/13 05:57:32;;;;;;;9.93;2.50;;;;;;;;;;4958209;28;99376;-88
2023/08/13 05:59:59;;;;;;;12.70;2.50;;;;;;;;;;4942641;28;98491;-89
2023/08/13 06:02:26;;;;;;;10.15;2.50;;;;;;;;;;4955788;28;99028;-87
2023/08/13 06:04:53;;;;;;;7.45;2.33;;;;;;;;;;4943065;28;97740;-84
2023/08/13 06:07:19;;;;;;;9.30;2.25;;;;;;;;;;4952085;28;98814;-87
2023/08/13 06:09:46;;;;;;;9.15;2.33;;;;;;;;;;4930415;28;100920;-85
2023/08/13 06:12:12;;;;;;;10.10;2.20;;;;;;;;;;4930376;28;100953;-85
2023/08/13 06:14:39;;;;;;;8.52;2.35;;;;;;;;;;4950411;28;98632;-85
2023/08/13 06:17:06;;;;;;;12.55;2.65;;;;;;;;;;4952695;28;99028;-86
2023/08/13 06:19:40;;;;;;;9.88;2.50;;;;;;;;;;4960167;28;99027;-86
2023/08/13 06:22:07;;;;;;;10.85;2.42;;;;;;;;;;4957923;28;99257;-86
2023/08/13 06:24:34;;;;;;;13.32;2.33;;;;;;;;;;4956364;28;98400;-86
2023/08/13 06:27:00;;;;;;;10.45;2.25;;;;;;;;;;4963417;28;98191;-86
2023/08/13 06:29:27;;;;;;;9.18;1.98;;;;;;;;;;4971957;28;98359;-86
2023/08/13 06:31:53;;;;;;;10.73;2.40;;;;;;;;;;4956545;28;98199;-88
2023/08/13 06:34:20;;;;;;;12.20;2.67;;;;;;;;;;4970828;28;98434;-88
2023/08/13 06:36:47;;;;;;;9.85;2.42;;;;;;;;;;4969710;28;100125;-87
2023/08/13 06:39:14;;;;;;;13.10;2.97;;;;;;;;;;4968018;28;98461;-87
2023/08/13 06:41:40;;;;;;;11.07;2.63;;;;;;;;;;4964455;28;98933;-87
2023/08/13 06:44:15;;;;;;;13.98;2.78;;;;;;;;;;4957748;28;98447;-87
2023/08/13 06:46:42;;;;;;;8.73;2.63;;;;;;;;;;4971668;28;98350;-87
2023/08/13 06:49:08;;;;;;;9.40;2.80;;;;;;;;;;4948027;28;99195;-88
2023/08/13 06:51:35;;;;;;;9.75;2.60;;;;;;;;;;4938261;28;99365;-87
2023/08/13 06:54:01;;;;;;;9.93;2.50;;;;;;;;;;4972144;28;97741;-85
2023/08/13 06:56:30;;;;;;;10.18;2.78;;;;;;;;;;4971647;28;97813;-87
2023/08/13 06:58:56;;;;;;;10.27;2.80;;;;;;;;;;4948672;28;98662;-88
2023/08/13 07:01:23;;;;;;;9.48;2.50;;;;;;;;;;4953273;28;99544;-88
2023/08/13 07:03:49;;;;;;;9.20;2.40;;;;;;;;;;4962612;28;98438;-90
2023/08/13 07:06:16;;;;;;;9.20;2.40;;;;;;;;;;4946254;28;98493;-87
2023/08/13 07:08:43;;;;;;;7.85;1.83;;;;;;;;;;4940306;28;98444;-89
2023/08/13 07:11:10;;;;;;;9.27;2.20;;;;;;;;;;4947183;28;99612;-89
2023/08/13 07:13:36;;;;;;;11.02;2.38;;;;;;;;;;4945976;28;99046;-87
2023/08/13 07:16:03;;;;;;;9.45;2.03;;;;;;;;;;4945206;28;102144;-86
2023/08/13 07:18:30;;;;;;;8.63;2.33;;;;;;;;;;4950957;28;98474;-86
2023/08/13 07:20:56;;;;;;;6.57;2.08;;;;;;;;;;4945734;28;99107;-87
2023/08/13 07:23:23;;;;;;;10.02;1.88;;;;;;;;;;4943010;28;101655;-86
2023/08/13 07:25:49;;;;;;;6.95;1.88;;;;;;;;;;4947843;28;100176;-85
2023/08/13 07:28:16;;;;;;;6.53;1.70;;;;;;;;;;4933073;28;101157;-83
2023/08/13 07:30:43;;;;;;;7.50;1.80;;;;;;;;;;4939333;28;99160;-83
2023/08/13 07:33:09;;;;;;;7.63;2.05;;;;;;;;;;4942994;28;98584;-83
2023/08/13 07:35:36;;;;;;;5.93;1.80;;;;;;;;;;4947093;28;99880;-83
2023/08/13 07:38:03;;;;;;;7.93;2.08;;;;;;;;;;4944897;28;99449;-84
2023/08/13 07:40:29;;;;;;;9.13;1.88;;;;;;;;;;4931354;28;98596;-84
2023/08/13 07:43:00;;;;;;;7.55;1.90;;;;;;;;;;4945494;28;99296;-83
2023/08/13 07:45:27;;;;;;;6.45;1.88;;;;;;;;;;4945263;28;99282;-83
2023/08/13 07:47:53;;;;;;;6.93;1.80;;;;;;;;;;4941668;28;99015;-83
2023/08/13 07:50:20;;;;;;;9.02;1.85;;;;;;;;;;4946395;28;100464;-86
2023/08/13 07:52:46;;;;;;;6.95;1.80;;;;;;;;;;4948458;28;98818;-85
2023/08/13 07:55:13;;;;;;;8.95;1.80;;;;;;;;;;4949542;28;98908;-85
2023/08/13 07:57:39;;;;;;;8.95;2.00;;;;;;;;;;4941521;28;98555;-86
2023/08/13 08:00:08;;;;;;;9.02;1.77;;;;;;;;;;4945050;28;98863;-84
2023/08/13 08:02:42;;;;;;;7.05;1.88;;;;;;;;;;4950073;28;99379;-86
2023/08/13 08:05:10;;;;;;;9.60;1.77;;;;;;;;;;4945654;28;100507;-87
2023/08/13 08:07:36;;;;;;;8.38;1.58;;;;;;;;;;4950869;28;98217;-86
2023/08/13 08:10:03;;;;;;;7.55;1.67;;;;;;;;;;4946459;28;99380;-87
2023/08/13 08:12:30;;;;;;;4.93;1.40;;;;;;;;;;4950095;28;98612;-87
2023/08/13 08:14:58;;;;;;;7.75;1.90;;;;;;;;;;4950938;28;99667;-86
2023/08/13 08:17:25;;;;;;;6.50;1.75;;;;;;;;;;4934909;28;100576;-86
2023/08/13 08:19:52;;;;;;;7.78;1.70;;;;;;;;;;4950308;28;98534;-87
2023/08/13 08:22:18;;;;;;;6.47;1.70;;;;;;;;;;4946748;28;98935;-87
2023/08/13 08:24:45;;;;;;;5.97;1.63;;;;;;;;;;4948867;28;100049;-88
2023/08/13 08:27:11;;;;;;;5.55;1.60;;;;;;;;;;4950329;28;98849;-87
2023/08/13 08:29:38;;;;;;;4.88;1.60;;;;;;;;;;4951749;28;98932;-87
2023/08/13 08:32:04;;;;;;;6.65;1.63;;;;;;;;;;4938393;28;98027;-86
2023/08/13 08:34:31;;;;;;;7.25;1.80;;;;;;;;;;4948518;28;98719;-87
2023/08/13 08:36:58;;;;;;;5.85;1.48;;;;;;;;;;4947589;28;99233;-86
2023/08/13 08:39:25;;;;;;;;;;;;;;;;;;4949653;28;99431;-87
2023/08/13 08:41:53;;;;;;;7.88;1.77;;;;;;;;;;4936323;28;109141;-87
2023/08/13 08:44:20;;;;;;;5.80;1.58;;;;;;;;;;4948899;28;99707;-87
2023/08/13 08:46:51;;;;;;;5.43;1.48;;;;;;;;;;4949604;28;98496;-87
2023/08/13 08:49:19;;;;;;;7.13;1.52;;;;;;;;;;4953970;28;99442;-89
2023/08/13 08:51:45;;;;;;;;;;;;;;;;;;4967685;28;98692;-86
2023/08/13 08:54:12;;;;;;;4.65;1.42;;;;;;;;;;4961340;28;101846;-87
2023/08/13 08:56:38;;;;;;;6.22;1.52;;;;;;;;;;4947433;28;99453;-86
2023/08/13 08:59:05;;;;;;;5.72;1.50;;;;;;;;;;4942542;28;99267;-87
2023/08/13 09:01:32;;;;;;;5.13;1.50;;;;;;;;;;4934159;28;98871;-89
2023/08/13 09:03:59;;;;;;;4.95;1.60;;;;;;;;;;4948167;28;100093;-89
2023/08/13 09:06:52;;;;;;;5.90;1.50;;;;;;;;;;4949972;28;99137;-88
2023/08/13 09:09:18;;;;;;;6.10;1.50;;;;;;;;;;4951487;28;98902;-87
2023/08/13 09:11:48;;;;;;;3.67;1.30;;;;;;;;;;4947779;28;101462;-89
2023/08/13 09:14:14;;;;;;;5.25;1.45;;;;;;;;;;4954608;28;98627;-90
2023/08/13 09:16:47;;;;;;;4.35;1.35;;;;;;;;;;4949719;28;102338;-87
2023/08/13 09:19:14;;;;;;;3.42;1.38;;;;;;;;;;4952095;28;98494;-86
2023/08/13 09:21:48;;;;;;;5.72;1.60;;;;;;;;;;4959559;28;98803;-89
2023/08/13 09:24:15;;;;;;;3.97;1.45;;;;;;;;;;4954573;28;99240;-89
2023/08/13 09:26:43;;;;;;;5.57;1.38;;;;;;;;;;4938781;28;98426;-86
2023/08/13 09:29:09;;;;;;;5.70;1.60;;;;;;;;;;4953210;28;99323;-85
2023/08/13 09:31:36;;;;;;;4.70;1.50;;;;;;;;;;4959090;28;98504;-87
2023/08/13 09:34:03;;;;;;;4.63;1.50;;;;;;;;;;4959273;28;98427;-87
2023/08/13 09:36:30;;;;;;;6.40;1.52;;;;;;;;;;4940464;28;98818;-86
2023/08/13 09:38:56;;;;;;;5.47;1.60;;;;;;;;;;4951976;28;98627;-87
2023/08/13 09:41:24;;;;;;;6.80;1.58;;;;;;;;;;4952794;28;98701;-87
2023/08/13 09:43:53;;;;;;;5.05;1.40;;;;;;;;;;4952735;28;99365;-86
2023/08/13 09:46:20;;;;;;;5.13;1.50;;;;;;;;;;4952337;28;97777;-86
2023/08/13 09:48:49;;;;;;;5.15;1.50;;;;;;;;;;4952846;28;98468;-87
2023/08/13 09:51:17;;;;;;;5.63;1.73;;;;;;;;;;4950389;28;99196;-87
2023/08/13 09:54:03;;;;;;;6.13;1.55;;;;;;;;;;4943210;28;99269;-87
2023/08/13 09:56:30;;;;;;;4.78;1.48;;;;;;;;;;4941519;28;99522;-88
2023/08/13 09:58:57;;;;;;;;;;;;;;;;;;4951702;28;98953;-87
2023/08/13 10:01:23;;;;;;;4.13;1.50;;;;;;;;;;4948967;28;113611;-88
2023/08/13 10:03:50;;;;;;;3.63;1.45;;;;;;;;;;4945866;28;99006;-87
2023/08/13 10:06:19;;;;;;;3.97;1.48;;;;;;;;;;4936359;28;98555;-89
2023/08/13 10:08:46;;;;;;;3.88;1.20;;;;;;;;;;4934011;28;99224;-87
2023/08/13 10:11:13;;;;;;;6.55;1.65;;;;;;;;;;4948443;28;99082;-87
2023/08/13 10:13:39;;;;;;;4.43;1.40;;;;;;;;;;4948479;28;98924;-87
2023/08/13 10:16:07;;;;;;;5.25;1.70;;;;;;;;;;4948696;28;98867;-87
2023/08/13 10:18:34;;;;;;;4.40;1.40;;;;;;;;;;4951343;28;101025;-88
2023/08/13 10:21:01;;;;;;;6.45;1.80;;;;;;;;;;4946340;28;99506;-87
2023/08/13 10:23:27;;;;;;;6.00;1.50;;;;;;;;;;4944758;28;100777;-87
2023/08/13 10:25:55;;;;;;;4.63;1.40;;;;;;;;;;4948340;28;98623;-88
2023/08/13 10:28:23;;;;;;;5.15;1.60;;;;;;;;;;4943231;28;98797;-88
2023/08/13 10:31:10;;;;;;;4.75;1.75;;;;;;;;;;4933364;28;100817;-86
2023/08/13 10:33:36;;;;;;;4.22;1.55;;;;;;;;;;4947522;28;98654;-87
2023/08/13 10:36:08;;;;;;;4.22;1.70;;;;;;;;;;4937128;28;98840;-88
2023/08/13 10:38:38;;;;;;;4.32;1.40;;;;;;;;;;4948899;28;99270;-88
2023/08/13 10:41:06;;;;;;;4.43;1.50;;;;;;;;;;4939490;28;99019;-88
2023/08/13 10:43:33;;;;;;;9.43;2.47;;;;;;;;;;4931361;28;99860;-82
2023/08/13 10:46:05;;;;;;;10.43;2.42;;;;;;;;;;4936292;28;98692;-90
2023/08/13 10:48:32;;;;;;;8.82;2.30;;;;;;;;;;4949155;28;98573;-92
2023/08/13 10:51:00;;;;;;;8.20;2.00;;;;;;;;;;4947337;28;101091;-89
2023/08/13 10:53:27;;;;;;;10.07;1.90;;;;;;;;;;4949160;28;99096;-89
2023/08/13 10:55:55;;;;;;;10.95;2.35;;;;;;;;;;4940776;28;99363;-89
2023/08/13 10:58:25;;;;;;;10.35;2.72;;;;;;;;;;4942236;28;99434;-90
2023/08/13 11:00:56;;;;;;;10.82;2.35;;;;;;;;;;4938894;28;97798;-89
2023/08/13 11:03:23;;;;;;;7.65;1.80;;;;;;;;;;4923978;28;98600;-90
2023/08/13 11:05:51;;;;;;;9.60;2.35;;;;;;;;;;4948308;28;98497;-88
2023/08/13 11:08:19;;;;;;;8.10;2.10;;;;;;;;;;4945959;28;99180;-92
2023/08/13 11:11:03;;;;;;;10.60;2.40;;;;;;;;;;4944258;28;99499;-82
2023/08/13 11:13:29;;;;;;;6.57;2.15;;;;;;;;;;4940950;28;98959;-89
2023/08/13 11:15:56;;;;;;;9.15;2.38;;;;;;;;;;4919043;28;101467;-85
2023/08/13 11:18:23;;;;;;;12.55;2.45;;;;;;;;;;4941114;28;99001;-90
2023/08/13 11:20:50;;;;;;;9.77;2.08;;;;;;;;;;4938896;28;98789;-89
2023/08/13 11:23:17;;;;;;;9.32;2.30;;;;;;;;;;4938583;28;100781;-87
2023/08/13 11:25:48;;;;;;;8.70;2.55;;;;;;;;;;4957430;28;99169;-87
2023/08/13 11:28:19;;;;;;;9.98;2.38;;;;;;;;;;4948400;28;98506;-89
2023/08/13 11:30:46;;;;;;;11.45;2.80;;;;;;;;;;4948572;28;99367;-89
2023/08/13 11:33:12;;;;;;;;;;;;;;;;;;4955182;28;99332;-89
2023/08/13 11:35:39;;;;;;;11.52;2.45;;;;;;;;;;4942609;28;127391;-88
2023/08/13 11:38:06;;;;;;;10.05;2.50;;;;;;;;;;4941981;28;99310;-91
2023/08/13 11:40:33;;;;;;;10.15;2.50;;;;;;;;;;4932479;28;98554;-89
2023/08/13 11:43:00;;;;;;;8.35;2.50;;;;;;;;;;4927927;28;99136;-90
2023/08/13 11:45:26;;;;;;;;;;;;;;;;;;4917519;28;100345;-84
2023/08/13 11:48:06;;;;;;;11.27;2.60;;;;;;;;;;4906975;28;99842;-91
2023/08/13 11:50:33;;;;;;;9.40;2.47;;;;;;;;;;4933032;28;97841;-87
2023/08/13 11:53:20;;;;;;;8.60;2.35;;;;;;;;;;4934692;28;98906;-89
2023/08/13 11:55:47;;;;;;;7.93;2.13;;;;;;;;;;4953528;28;99094;-88
2023/08/13 11:58:17;;;;;;;18.67;3.05;;;;;;;;;;4943623;28;99862;-84
2023/08/13 12:00:47;;;;;;;10.13;2.20;;;;;;;;;;4945971;28;98463;-88
2023/08/13 12:03:14;;;;;;;10.38;2.30;;;;;;;;;;4940793;28;99984;-87
2023/08/13 12:05:42;;;;;;;10.25;2.47;;;;;;;;;;4938555;28;99721;-85
2023/08/13 12:08:10;;;;;;;10.20;2.50;;;;;;;;;;4948341;28;98522;-86
2023/08/13 12:10:38;;;;;;;8.07;2.10;;;;;;;;;;4956688;28;99626;-88
2023/08/13 12:13:04;;;;;;;9.23;2.42;;;;;;;;;;4948231;28;98980;-88
2023/08/13 12:15:31;;;;;;;11.30;3.00;;;;;;;;;;4958729;28;98008;-89
2023/08/13 12:17:58;;;;;;;13.02;2.50;;;;;;;;;;4952936;28;98840;-89
2023/08/13 12:20:25;;;;;;;;;;;;;;;;;;4935734;28;99406;-89
2023/08/13 12:22:53;;;;;;;8.88;2.17;;;;;;;;;;4936468;28;110840;-89
2023/08/13 12:25:20;;;;;;;9.27;2.60;;;;;;;;;;4918401;28;100477;-89
2023/08/13 12:27:47;;;;;;;8.85;2.30;;;;;;;;;;4933654;28;99071;-91
2023/08/13 12:30:14;;;;;;;10.43;2.65;;;;;;;;;;4931723;28;99485;-90
2023/08/13 12:32:40;;;;;;;9.02;2.40;;;;;;;;;;4935765;28;99479;-90
2023/08/13 12:35:10;;;;;;;9.02;2.17;;;;;;;;;;4942120;28;98868;-90
2023/08/13 12:37:37;;;;;;;10.77;2.58;;;;;;;;;;4934142;28;99385;-91
2023/08/13 12:40:04;;;;;;;8.82;2.53;;;;;;;;;;4931657;28;97784;-90
2023/08/13 12:42:31;;;;;;;10.63;2.58;;;;;;;;;;4941604;28;98506;-91
2023/08/13 12:44:59;;;;;;;10.98;2.50;;;;;;;;;;4951083;28;101671;-90
2023/08/13 12:47:26;;;;;;;9.32;2.50;;;;;;;;;;4929149;28;100360;-90
2023/08/13 12:49:54;;;;;;;10.52;2.47;;;;;;;;;;4935504;28;99670;-90
2023/08/13 12:52:21;;;;;;;9.70;2.45;;;;;;;;;;4938019;28;98932;-88
2023/08/13 12:54:48;;;;;;;11.18;2.65;;;;;;;;;;4933868;28;98781;-89
2023/08/13 12:57:15;;;;;;;11.82;2.72;;;;;;;;;;4932343;28;99345;-89
2023/08/13 12:59:41;;;;;;;9.40;2.40;;;;;;;;;;4938397;28;98887;-92
2023/08/13 13:02:08;;;;;;;7.25;2.10;;;;;;;;;;4932594;28;102698;-89
2023/08/13 13:04:35;;;;;;;10.25;2.40;;;;;;;;;;4937145;28;97698;-89
2023/08/13 13:07:01;;;;;;;12.30;2.63;;;;;;;;;;4932960;28;99100;-83
2023/08/13 13:09:28;;;;;;;10.68;2.80;;;;;;;;;;4932220;28;98926;-92
2023/08/13 13:11:54;;;;;;;10.05;2.38;;;;;;;;;;4932644;28;100984;-89
2023/08/13 13:14:21;;;;;;;8.93;2.30;;;;;;;;;;4944833;28;98537;-89
2023/08/13 13:16:50;;;;;;;9.07;2.40;;;;;;;;;;4944204;28;99339;-87
2023/08/13 13:19:17;;;;;;;9.88;2.83;;;;;;;;;;4919072;28;99101;-84
2023/08/13 13:21:43;;;;;;;9.57;2.47;;;;;;;;;;4938656;28;101076;-81
2023/08/13 13:24:10;;;;;;;11.98;2.40;;;;;;;;;;4927371;28;99530;-84
2023/08/13 13:26:36;;;;;;;11.43;2.50;;;;;;;;;;4930553;28;98928;-85
2023/08/13 13:29:03;;;;;;;12.18;2.25;;;;;;;;;;4934896;28;98985;-90
2023/08/13 13:31:30;;;;;;;10.35;2.80;;;;;;;;;;4926523;28;101872;-88
2023/08/13 13:33:56;;;;;;;9.27;2.20;;;;;;;;;;4934532;28;98733;-90
2023/08/13 13:36:23;;;;;;;8.60;2.42;;;;;;;;;;4941820;28;99416;-84
2023/08/13 13:38:49;;;;;;;12.95;2.50;;;;;;;;;;4940699;28;98494;-88
2023/08/13 13:41:16;;;;;;;9.95;2.45;;;;;;;;;;4945836;28;98442;-90
2023/08/13 13:43:43;;;;;;;11.63;3.25;;;;;;;;;;4944711;28;99261;-91
2023/08/13 13:46:09;;;;;;;8.60;2.20;;;;;;;;;;4946244;28;98985;-87
2023/08/13 13:48:36;;;;;;;8.60;2.50;;;;;;;;;;4954388;28;99566;-90
2023/08/13 13:51:03;;;;;;;9.38;2.33;;;;;;;;;;4948648;28;98561;-88
2023/08/13 13:53:29;;;;;;;9.32;2.33;;;;;;;;;;4942374;28;98352;-89
2023/08/13 13:55:56;;;;;;;7.78;2.15;;;;;;;;;;4934602;28;98995;-89
2023/08/13 13:58:22;;;;;;;9.70;2.50;;;;;;;;;;4930931;28;99193;-90
2023/08/13 14:00:50;;;;;;;9.48;2.50;;;;;;;;;;4935734;28;100172;-88
2023/08/13 14:03:17;;;;;;;8.05;2.38;;;;;;;;;;4928166;28;101009;-90
2023/08/13 14:05:49;;;;;;;10.52;2.33;;;;;;;;;;4933980;28;98560;-88
2023/08/13 14:08:16;;;;;;;10.30;2.20;;;;;;;;;;4933085;28;99340;-90
2023/08/13 14:10:43;;;;;;;8.90;2.30;;;;;;;;;;4930618;28;99155;-89
2023/08/13 14:13:09;;;;;;;8.10;2.40;;;;;;;;;;4930370;28;98904;-88
2023/08/13 14:15:36;;;;;;;7.32;2.40;;;;;;;;;;4934424;28;100445;-91
2023/08/13 14:18:03;;;;;;;9.98;2.30;;;;;;;;;;4935587;28;103322;-84
2023/08/13 14:20:31;;;;;;;8.95;2.35;;;;;;;;;;4937718;28;98769;-90
2023/08/13 14:22:58;;;;;;;10.60;2.58;;;;;;;;;;4928633;28;98930;-90
2023/08/13 14:25:24;;;;;;;11.30;2.22;;;;;;;;;;4932697;28;99296;-91
2023/08/13 14:27:51;;;;;;;8.10;2.50;;;;;;;;;;4934205;28;100099;-89
2023/08/13 14:30:18;;;;;;;8.68;2.40;;;;;;;;;;4947658;28;98671;-91
2023/08/13 14:32:44;;;;;;;9.43;2.35;;;;;;;;;;4929476;28;98660;-91
2023/08/13 14:35:11;;;;;;;10.48;2.65;;;;;;;;;;4951710;28;99421;-88
2023/08/13 14:37:38;;;;;;;8.38;2.63;;;;;;;;;;4944298;28;99299;-89
2023/08/13 14:40:05;;;;;;;10.35;2.92;;;;;;;;;;4959242;28;98565;-87
2023/08/13 14:42:32;;;;;;;9.93;2.58;;;;;;;;;;4948802;28;97839;-88